createdAt,value
2018-07-09T00:02:26.118Z,101547.27
2018-07-09T00:04:54.978Z,101551.30
2018-07-09T00:07:23.900Z,101547.73
2018-07-09T00:09:52.768Z,101549.19
2018-07-09T00:12:22.074Z,101548.29
2018-07-09T00:14:50.969Z,101550.67
2018-07-09T00:17:19.602Z,101548.95
2018-07-09T00:19:48.375Z,101551.25
2018-07-09T00:22:17.296Z,101550.02
2018-07-09T00:24:46.737Z,101553.55
2018-07-09T00:27:15.827Z,101555.02
2018-07-09T00:29:44.518Z,101554.80
2018-07-09T00:32:13.264Z,101555.58
2018-07-09T00:34:42.102Z,101549.45
2018-07-09T00:37:11.186Z,101551.68
2018-07-09T00:39:40.091Z,101556.89
2018-07-09T00:42:09.188Z,101550.69
2018-07-09T00:44:37.947Z,101551.91
2018-07-09T00:47:06.938Z,101550.11
2018-07-09T00:49:35.711Z,101551.09
2018-07-09T00:52:04.440Z,101546.75
2018-07-09T00:54:33.256Z,101555.34
2018-07-09T00:57:02.145Z,101548.78
2018-07-09T00:59:31.203Z,101553.62
2018-07-09T01:02:00.112Z,101550.52
2018-07-09T01:04:28.758Z,101547.08
2018-07-09T01:06:57.607Z,101552.97
2018-07-09T01:09:26.971Z,101551.42
2018-07-09T01:12:11.754Z,101542.69
2018-07-09T01:14:41.409Z,101546.03
2018-07-09T01:17:10.231Z,101541.93
2018-07-09T01:19:38.971Z,101544.11
2018-07-09T01:22:07.824Z,101542.06
2018-07-09T01:24:36.416Z,101544.34
2018-07-09T01:27:05.383Z,101550.65
2018-07-09T01:29:34.349Z,101548.25
2018-07-09T01:32:03.036Z,101546.64
2018-07-09T01:34:31.871Z,101545.41
2018-07-09T01:37:00.535Z,101535.59
2018-07-09T01:39:29.428Z,101537.30
2018-07-09T01:41:58.334Z,101537.33
2018-07-09T01:44:27.411Z,101542.53
2018-07-09T01:46:56.136Z,101530.77
2018-07-09T01:49:25.031Z,101538.97
2018-07-09T01:51:54.365Z,101531.78
2018-07-09T01:54:22.922Z,101530.45
2018-07-09T01:56:51.674Z,101528.81
2018-07-09T01:59:20.526Z,101522.94
2018-07-09T02:01:49.120Z,101523.83
2018-07-09T02:04:17.898Z,101527.89
2018-07-09T02:06:47.035Z,101523.12
2018-07-09T02:09:15.947Z,101518.80
2018-07-09T02:11:44.822Z,101526.45
2018-07-09T02:14:13.692Z,101526.85
2018-07-09T02:16:42.605Z,101526.75
2018-07-09T02:19:11.455Z,101533.43
2018-07-09T02:21:40.292Z,101533.09
2018-07-09T02:24:09.063Z,101536.69
2018-07-09T02:26:38.149Z,101532.53
2018-07-09T02:29:07.076Z,101534.69
2018-07-09T02:31:35.942Z,101535.31
2018-07-09T02:34:04.804Z,101531.29
2018-07-09T02:36:36.440Z,101534.83
2018-07-09T02:39:06.695Z,101532.39
2018-07-09T02:41:35.678Z,101531.45
2018-07-09T02:44:04.484Z,101529.08
2018-07-09T02:46:33.385Z,101526.75
2018-07-09T02:49:02.128Z,101524.94
2018-07-09T02:51:31.170Z,101528.06
2018-07-09T02:53:59.871Z,101524.44
2018-07-09T02:56:28.735Z,101533.96
2018-07-09T02:58:57.511Z,101528.59
2018-07-09T03:01:26.364Z,101526.27
2018-07-09T03:03:54.980Z,101536.69
2018-07-09T03:06:24.041Z,101530.12
2018-07-09T03:08:53.486Z,101539.25
2018-07-09T03:11:22.392Z,101536.91
2018-07-09T03:13:52.091Z,101537.43
2018-07-09T03:16:20.804Z,101540.33
2018-07-09T03:18:49.872Z,101546.00
2018-07-09T03:21:18.643Z,101541.89
2018-07-09T03:23:47.495Z,101536.98
2018-07-09T03:26:16.144Z,101546.38
2018-07-09T03:28:44.907Z,101539.38
2018-07-09T03:31:13.497Z,101545.12
2018-07-09T03:33:42.613Z,101554.49
2018-07-09T03:36:11.708Z,101546.45
2018-07-09T03:38:40.312Z,101546.20
2018-07-09T03:41:08.976Z,101545.33
2018-07-09T03:43:37.955Z,101542.77
2018-07-09T03:46:06.758Z,101545.84
2018-07-09T03:48:35.549Z,101543.85
2018-07-09T03:51:04.254Z,101527.88
2018-07-09T03:53:33.786Z,101535.50
2018-07-09T03:56:03.023Z,101541.08
2018-07-09T03:58:31.747Z,101535.77
2018-07-09T04:03:56.254Z,101542.39
2018-07-09T04:06:24.915Z,101543.08
2018-07-09T04:08:53.613Z,101542.86
2018-07-09T04:11:22.362Z,101540.19
2018-07-09T04:13:51.239Z,101540.15
2018-07-09T04:16:19.904Z,101531.89
2018-07-09T04:18:48.326Z,101539.71
2018-07-09T04:21:16.861Z,101535.21
2018-07-09T04:23:45.523Z,101534.59
2018-07-09T04:26:14.344Z,101536.17
2018-07-09T04:28:43.484Z,101536.73
2018-07-09T04:31:12.030Z,101537.63
2018-07-09T04:33:40.859Z,101538.37
2018-07-09T04:36:09.407Z,101537.61
2018-07-09T04:38:38.910Z,101539.33
2018-07-09T04:41:07.593Z,101534.70
2018-07-09T04:43:36.283Z,101533.53
2018-07-09T04:46:05.524Z,101538.77
2018-07-09T04:48:34.321Z,101535.05
2018-07-09T04:51:02.950Z,101541.84
2018-07-09T04:53:31.795Z,101540.33
2018-07-09T04:56:00.522Z,101543.22
2018-07-09T04:58:29.178Z,101540.37
2018-07-09T05:00:57.940Z,101538.94
2018-07-09T05:03:28.982Z,101542.48
2018-07-09T05:05:57.639Z,101542.73
2018-07-09T05:08:26.374Z,101544.22
2018-07-09T05:10:55.155Z,101535.89
2018-07-09T05:13:24.234Z,101528.82
2018-07-09T05:15:52.913Z,101525.00
2018-07-09T05:18:21.567Z,101533.59
2018-07-09T05:20:50.242Z,101538.78
2018-07-09T05:23:19.380Z,101536.69
2018-07-09T05:25:48.046Z,101540.65
2018-07-09T05:28:16.680Z,101535.91
2018-07-09T05:30:45.365Z,101531.38
2018-07-09T05:33:14.082Z,101537.34
2018-07-09T05:35:42.995Z,101538.67
2018-07-09T05:38:11.513Z,101537.15
2018-07-09T05:40:40.144Z,101542.19
2018-07-09T05:43:09.050Z,101536.58
2018-07-09T05:45:37.594Z,101535.82
2018-07-09T05:48:06.635Z,101536.13
2018-07-09T05:50:35.332Z,101535.67
2018-07-09T05:53:04.297Z,101535.05
2018-07-09T05:55:33.279Z,101525.69
2018-07-09T05:58:01.924Z,101531.48
2018-07-09T06:00:32.058Z,101526.92
2018-07-09T06:03:00.829Z,101522.20
2018-07-09T06:05:29.703Z,101520.86
2018-07-09T06:07:58.576Z,101524.23
2018-07-09T06:10:27.461Z,101516.72
2018-07-09T06:12:56.770Z,101520.02
2018-07-09T06:15:25.486Z,101513.34
2018-07-09T06:17:54.265Z,101514.47
2018-07-09T06:20:23.002Z,101510.12
2018-07-09T06:22:51.774Z,101510.22
2018-07-09T06:25:21.351Z,101508.16
2018-07-09T06:27:50.067Z,101509.72
2018-07-09T06:30:18.899Z,101509.09
2018-07-09T06:32:47.653Z,101508.09
2018-07-09T06:35:16.234Z,101523.95
2018-07-09T06:37:44.814Z,101528.70
2018-07-09T06:40:13.403Z,101526.56
2018-07-09T06:42:42.123Z,101522.98
2018-07-09T06:45:10.786Z,101519.54
2018-07-09T06:47:39.332Z,101520.78
2018-07-09T06:50:08.098Z,101426.05
2018-07-09T06:52:36.871Z,101524.19
2018-07-09T06:55:05.710Z,101520.98
2018-07-09T06:57:34.748Z,101524.58
2018-07-09T07:00:03.871Z,101522.38
2018-07-09T07:02:32.628Z,101522.95
2018-07-09T07:05:02.218Z,101518.86
2018-07-09T07:07:31.324Z,101509.30
2018-07-09T07:10:00.472Z,101509.39
2018-07-09T07:12:29.614Z,101519.72
2018-07-09T07:14:58.881Z,101515.05
2018-07-09T07:17:28.121Z,101512.72
2018-07-09T07:19:59.246Z,101517.33
2018-07-09T07:22:28.631Z,101515.95
2018-07-09T07:24:57.993Z,101524.52
2018-07-09T07:27:27.073Z,101516.38
2018-07-09T07:29:56.326Z,101518.50
2018-07-09T07:32:25.422Z,101514.94
2018-07-09T07:34:54.642Z,101522.25
2018-07-09T07:37:23.974Z,101521.55
2018-07-09T07:39:53.154Z,101520.33
2018-07-09T07:42:22.322Z,101517.74
2018-07-09T07:44:51.473Z,101518.81
2018-07-09T07:47:20.749Z,101512.98
2018-07-09T07:49:49.910Z,101518.16
2018-07-09T07:52:20.683Z,101514.59
2018-07-09T07:54:49.981Z,101509.67
2018-07-09T07:57:19.259Z,101509.55
2018-07-09T07:59:48.846Z,101514.14
2018-07-09T08:02:18.082Z,101503.09
2018-07-09T08:04:47.508Z,101501.81
2018-07-09T08:07:17.395Z,101506.48
2018-07-09T08:09:46.573Z,101503.22
2018-07-09T08:13:00.559Z,101493.19
2018-07-09T08:14:44.882Z,101493.23
2018-07-09T08:17:14.765Z,101500.79
2018-07-09T08:19:44.074Z,101497.79
2018-07-09T08:22:13.349Z,101500.86
2018-07-09T08:24:42.850Z,101496.44
2018-07-09T08:27:12.218Z,101496.97
2018-07-09T08:29:41.793Z,101489.65
2018-07-09T08:32:11.488Z,101484.80
2018-07-09T08:34:40.758Z,101482.42
2018-07-09T08:37:11.088Z,101480.90
2018-07-09T08:39:41.073Z,101479.34
2018-07-09T08:42:10.836Z,101492.83
2018-07-09T08:44:42.796Z,101485.34
2018-07-09T08:47:12.697Z,101483.80
2018-07-09T08:49:41.734Z,101486.41
2018-07-09T08:52:11.028Z,101483.41
2018-07-09T08:54:40.181Z,101476.05
2018-07-09T08:57:10.051Z,101475.44
2018-07-09T08:59:41.103Z,101479.30
2018-07-09T09:02:10.426Z,101469.66
2018-07-09T09:04:39.627Z,101473.48
2018-07-09T09:07:09.760Z,101463.00
2018-07-09T09:09:41.754Z,101464.17
2018-07-09T09:12:13.051Z,101463.94
2018-07-09T09:14:42.871Z,101457.53
2018-07-09T09:17:16.555Z,101462.47
2018-07-09T09:19:47.271Z,101452.78
2018-07-09T09:22:19.255Z,101455.83
2018-07-09T09:24:53.710Z,101459.36
2018-07-09T09:27:23.581Z,101475.30
2018-07-09T09:29:53.133Z,101457.75
2018-07-09T09:32:23.401Z,101464.72
2018-07-09T09:34:55.566Z,101464.61
2018-07-09T09:37:25.654Z,101463.23
2018-07-09T09:39:58.367Z,101462.95
2018-07-09T09:42:28.173Z,101469.88
2018-07-09T09:45:07.153Z,101465.69
2018-07-09T09:47:37.812Z,101466.02
2018-07-09T09:50:07.744Z,101467.39
2018-07-09T09:52:37.285Z,101465.84
2018-07-09T09:55:07.391Z,101460.48
2018-07-09T09:57:38.297Z,101467.34
2018-07-09T10:00:14.810Z,101468.14
2018-07-09T10:02:45.820Z,101461.70
2018-07-09T10:05:16.218Z,101463.31
2018-07-09T10:07:45.615Z,101463.81
2018-07-09T10:10:15.029Z,101463.95
2018-07-09T10:12:45.506Z,101466.25
2018-07-09T10:15:18.785Z,101464.19
2018-07-09T10:17:49.282Z,101467.91
2018-07-09T10:20:19.989Z,101465.23
2018-07-09T10:22:50.066Z,101457.53
2018-07-09T10:25:19.678Z,101461.02
2018-07-09T10:27:49.147Z,101452.52
2018-07-09T10:30:18.547Z,101461.95
2018-07-09T10:32:48.374Z,101462.22
2018-07-09T10:35:17.680Z,101458.11
2018-07-09T10:37:48.090Z,101452.92
2018-07-09T10:40:18.529Z,101448.16
2018-07-09T10:42:49.668Z,101444.42
2018-07-09T10:45:29.271Z,101444.96
2018-07-09T10:48:00.241Z,101448.62
2018-07-09T10:50:33.823Z,101437.06
2018-07-09T10:53:08.352Z,101433.99
2018-07-09T10:58:20.044Z,101439.30
2018-07-09T11:00:50.761Z,101435.34
2018-07-09T11:03:23.275Z,101427.31
2018-07-09T11:06:01.396Z,101424.44
2018-07-09T11:08:32.961Z,101418.45
2018-07-09T11:11:06.991Z,101402.56
2018-07-09T11:13:40.829Z,101429.23
2018-07-09T11:16:14.966Z,101416.64
2018-07-09T11:19:01.715Z,101411.98
2018-07-09T11:21:31.268Z,101404.89
2018-07-09T11:24:03.575Z,101391.30
2018-07-09T11:26:34.497Z,101405.71
2018-07-09T11:29:04.048Z,101409.68
2018-07-09T11:31:37.003Z,101403.20
2018-07-09T11:34:08.751Z,101398.70
2018-07-09T11:36:40.434Z,101388.98
2018-07-09T11:39:11.151Z,101389.70
2018-07-09T11:41:43.652Z,101390.73
2018-07-09T11:44:15.060Z,101380.53
2018-07-09T11:46:48.483Z,101383.94
2018-07-09T11:49:20.367Z,101386.43
2018-07-09T11:51:52.837Z,101381.77
2018-07-09T11:54:26.916Z,101376.62
2018-07-09T11:57:02.793Z,101376.13
2018-07-09T11:59:41.097Z,101383.16
2018-07-09T12:02:12.549Z,101376.98
2018-07-09T12:04:44.390Z,101378.21
2018-07-09T12:07:17.498Z,101367.66
2018-07-09T12:09:50.224Z,101368.75
2018-07-09T12:12:22.243Z,101376.77
2018-07-09T12:14:54.208Z,101370.27
2018-07-09T12:17:33.122Z,101372.25
2018-07-09T12:20:04.493Z,101365.47
2018-07-09T12:22:37.614Z,101368.02
2018-07-09T12:25:12.338Z,101363.47
2018-07-09T12:27:45.967Z,101364.16
2018-07-09T12:30:16.399Z,101364.37
2018-07-09T12:32:47.889Z,101370.08
2018-07-09T12:35:18.619Z,101374.58
2018-07-09T12:37:48.261Z,101376.61
2018-07-09T12:40:18.537Z,101379.55
2018-07-09T12:42:50.222Z,101378.51
2018-07-09T12:45:23.668Z,101382.13
2018-07-09T12:47:56.296Z,101383.31
2018-07-09T12:50:28.609Z,101382.10
2018-07-09T12:52:59.607Z,101377.03
2018-07-09T12:55:30.760Z,101383.27
2018-07-09T12:58:04.118Z,101382.21
2018-07-09T13:00:34.930Z,101376.48
2018-07-09T13:03:09.014Z,101382.09
2018-07-09T13:05:41.591Z,101382.48
2018-07-09T13:08:16.278Z,101379.01
2018-07-09T13:10:51.654Z,101378.53
2018-07-09T13:13:23.556Z,101382.41
2018-07-09T13:15:59.886Z,101369.36
2018-07-09T13:18:41.049Z,101367.81
2018-07-09T13:21:20.006Z,101376.70
2018-07-09T13:23:55.653Z,101363.30
2018-07-09T13:26:27.309Z,101363.59
2018-07-09T13:28:58.403Z,101366.33
2018-07-09T13:31:31.113Z,101362.08
2018-07-09T13:34:02.932Z,101356.88
2018-07-09T13:36:38.491Z,101357.16
2018-07-09T13:39:10.124Z,101364.70
2018-07-09T13:41:47.326Z,101357.43
2018-07-09T13:44:19.842Z,101363.09
2018-07-09T13:46:49.995Z,101364.34
2018-07-09T13:49:22.879Z,101358.54
2018-07-09T13:51:53.627Z,101357.16
2018-07-09T13:54:27.194Z,101347.05
2018-07-09T13:57:02.920Z,101343.27
2018-07-09T13:59:35.881Z,101342.51
2018-07-09T14:02:08.988Z,101331.99
2018-07-09T14:04:38.938Z,101331.87
2018-07-09T14:07:13.247Z,101333.66
2018-07-09T14:09:47.318Z,101321.02
2018-07-09T14:12:21.168Z,101325.83
2018-07-09T14:14:52.607Z,101319.13
2018-07-09T14:17:37.832Z,101319.73
2018-07-09T14:20:36.572Z,101322.22
2018-07-09T14:23:13.032Z,101322.65
2018-07-09T14:25:46.783Z,101317.67
2018-07-09T14:28:17.313Z,101304.48
2018-07-09T14:30:48.696Z,101305.19
2018-07-09T14:33:19.644Z,101305.44
2018-07-09T14:35:50.803Z,101297.23
2018-07-09T14:38:26.934Z,101300.97
2018-07-09T14:40:59.504Z,101291.19
2018-07-09T14:43:30.990Z,101291.55
2018-07-09T14:46:08.119Z,101285.88
2018-07-09T14:48:43.847Z,101292.28
2018-07-09T14:51:14.563Z,101291.47
2018-07-09T14:53:47.018Z,101281.16
2018-07-09T14:56:19.347Z,101282.39
2018-07-09T14:58:56.414Z,101278.66
2018-07-09T15:01:27.478Z,101279.05
2018-07-09T15:04:00.230Z,101274.97
2018-07-09T15:06:38.152Z,101272.05
2018-07-09T15:09:18.462Z,101267.38
2018-07-09T15:11:50.000Z,101271.88
2018-07-09T15:14:28.907Z,101271.27
2018-07-09T15:17:06.854Z,101256.70
2018-07-09T15:19:41.899Z,101262.02
2018-07-09T15:22:15.764Z,101252.70
2018-07-09T15:24:48.072Z,101246.80
2018-07-09T15:27:23.467Z,101248.85
2018-07-09T15:30:07.089Z,101242.31
2018-07-09T15:32:43.064Z,101234.66
2018-07-09T15:35:17.035Z,101240.81
2018-07-09T15:37:48.373Z,101231.81
2018-07-09T15:40:20.255Z,101228.78
2018-07-09T15:42:51.250Z,101222.41
2018-07-09T15:45:24.209Z,101225.59
2018-07-09T15:48:02.824Z,101213.52
2018-07-09T15:50:36.504Z,101209.14
2018-07-09T15:53:10.476Z,101208.39
2018-07-09T15:55:42.362Z,101207.01
2018-07-09T15:58:19.576Z,101202.40
2018-07-09T16:01:00.304Z,101204.03
2018-07-09T16:03:34.095Z,101194.30
2018-07-09T16:06:06.499Z,101191.23
2018-07-09T16:08:39.408Z,101191.16
2018-07-09T16:11:15.326Z,101183.38
2018-07-09T16:13:53.873Z,101181.03
2018-07-09T16:16:34.389Z,101182.11
2018-07-09T16:19:08.069Z,101183.06
2018-07-09T16:21:45.345Z,101183.82
2018-07-09T16:24:16.904Z,101182.95
2018-07-09T16:26:47.484Z,101178.83
2018-07-09T16:29:20.443Z,101174.14
2018-07-09T16:31:52.538Z,101168.09
2018-07-09T16:34:30.684Z,101170.17
2018-07-09T16:37:11.700Z,101162.77
2018-07-09T16:39:45.789Z,101163.25
2018-07-09T16:42:19.658Z,101151.83
2018-07-09T16:47:37.367Z,101150.52
2018-07-09T16:50:16.757Z,101147.40
2018-07-09T16:52:50.514Z,101145.58
2018-07-09T16:55:27.072Z,101143.62
2018-07-09T16:58:00.889Z,101142.55
2018-07-09T17:00:40.695Z,101136.62
2018-07-09T17:03:13.080Z,101137.44
2018-07-09T17:05:56.269Z,101130.11
2018-07-09T17:08:31.787Z,101122.19
2018-07-09T17:11:11.914Z,101127.35
2018-07-09T17:13:47.123Z,101125.95
2018-07-09T17:16:21.116Z,101118.92
2018-07-09T17:18:55.136Z,101118.31
2018-07-09T17:21:27.940Z,101117.22
2018-07-09T17:24:02.030Z,101115.82
2018-07-09T17:26:40.971Z,101118.66
2018-07-09T17:29:19.421Z,101115.77
2018-07-09T17:34:33.075Z,101124.42
2018-07-09T17:37:12.648Z,101119.34
2018-07-09T17:39:44.953Z,101122.23
2018-07-09T17:42:17.261Z,101126.68
2018-07-09T17:44:50.351Z,101133.77
2018-07-09T17:47:33.922Z,101142.37
2018-07-09T17:50:09.126Z,101153.28
2018-07-09T17:52:43.650Z,101148.55
2018-07-09T17:55:19.725Z,101160.95
2018-07-09T17:57:53.709Z,101165.91
2018-07-09T18:00:35.545Z,101172.95
2018-07-09T18:03:10.547Z,101181.83
2018-07-09T18:05:48.707Z,101180.23
2018-07-09T18:08:22.293Z,101184.23
2018-07-09T18:13:50.589Z,101187.81
2018-07-09T18:16:26.545Z,101197.75
2018-07-09T18:19:01.154Z,101194.47
2018-07-09T18:21:35.271Z,101198.33
2018-07-09T18:24:17.468Z,101197.45
2018-07-09T18:27:06.201Z,101195.85
2018-07-09T18:29:54.680Z,101197.72
2018-07-09T18:32:34.064Z,101196.92
2018-07-09T18:35:08.630Z,101201.48
2018-07-09T18:37:45.490Z,101202.74
2018-07-09T18:40:19.046Z,101204.61
2018-07-09T18:42:59.050Z,101207.30
2018-07-09T18:45:44.808Z,101212.17
2018-07-09T18:48:19.322Z,101218.53
2018-07-09T18:50:56.393Z,101215.59
2018-07-09T18:53:40.984Z,101221.87
2018-07-09T18:56:12.937Z,101222.88
2018-07-09T18:58:51.330Z,101216.06
2018-07-09T19:01:25.114Z,101211.67
2018-07-09T19:04:00.239Z,101206.84
2018-07-09T19:07:00.701Z,101208.87
2018-07-09T19:09:41.521Z,101203.52
2018-07-09T19:14:59.738Z,101206.52
2018-07-09T19:20:48.716Z,101213.08
2018-07-09T19:23:24.794Z,101211.88
2018-07-09T19:25:53.192Z,101216.17
2018-07-09T19:28:27.362Z,101229.22
2018-07-09T19:30:57.902Z,101232.89
2018-07-09T19:33:31.724Z,101226.12
2018-07-09T19:36:07.468Z,101234.96
2018-07-09T19:38:41.298Z,101238.03
2018-07-09T19:43:58.387Z,101232.19
2018-07-09T19:49:04.545Z,101247.62
2018-07-09T19:51:40.393Z,101252.09
2018-07-09T19:54:15.672Z,101256.06
2018-07-09T19:56:47.796Z,101257.78
2018-07-09T19:59:17.175Z,101249.02
2018-07-09T20:01:48.485Z,101253.61
2018-07-09T20:04:19.695Z,101258.73
2018-07-09T20:06:52.783Z,101259.11
2018-07-09T20:09:27.945Z,101262.52
2018-07-09T20:12:01.024Z,101262.60
2018-07-09T20:14:39.149Z,101260.12
2018-07-09T20:17:21.657Z,101269.02
2018-07-09T20:19:59.503Z,101264.11
2018-07-09T20:22:32.138Z,101264.33
2018-07-09T20:25:04.872Z,101267.08
2018-07-09T20:27:36.305Z,101251.95
2018-07-09T20:30:07.040Z,101254.98
2018-07-09T20:32:43.526Z,101256.34
2018-07-09T20:35:11.976Z,101258.66
2018-07-09T20:37:41.469Z,101254.59
2018-07-09T20:40:12.784Z,101270.52
2018-07-09T20:42:43.967Z,101259.44
2018-07-09T20:45:16.078Z,101264.02
2018-07-09T20:47:46.573Z,101264.91
2018-07-09T20:50:19.085Z,101259.39
2018-07-09T20:52:50.408Z,101258.57
2018-07-09T20:55:24.284Z,101259.12
2018-07-09T20:58:03.347Z,101263.30
2018-07-09T21:00:33.805Z,101268.94
2018-07-09T21:03:08.519Z,101261.36
2018-07-09T21:05:39.116Z,101265.02
2018-07-09T21:08:08.206Z,101268.31
2018-07-09T21:10:42.541Z,101272.58
2018-07-09T21:13:11.797Z,101271.85
2018-07-09T21:15:43.468Z,101278.06
2018-07-09T21:18:16.294Z,101275.04
2018-07-09T21:20:45.665Z,101270.72
2018-07-09T21:23:15.100Z,101274.95
2018-07-09T21:25:45.957Z,101279.11
2018-07-09T21:28:18.274Z,101277.06
2018-07-09T21:30:46.392Z,101275.59
2018-07-09T21:33:15.046Z,101269.73
2018-07-09T21:35:43.407Z,101270.77
2018-07-09T21:38:12.209Z,101261.63
2018-07-09T21:40:42.742Z,101256.97
2018-07-09T21:45:45.626Z,101271.33
2018-07-09T21:48:13.337Z,101276.05
2018-07-09T21:50:44.064Z,101276.92
2018-07-09T21:53:12.521Z,101286.27
2018-07-09T21:55:41.350Z,101280.94
2018-07-09T21:58:09.823Z,101278.26
2018-07-09T22:00:38.670Z,101280.62
2018-07-09T22:03:09.641Z,101280.20
2018-07-09T22:05:37.563Z,101280.83
2018-07-09T22:08:07.151Z,101281.55
2018-07-09T22:10:35.004Z,101285.45
2018-07-09T22:13:03.576Z,101281.75
2018-07-09T22:15:33.785Z,101276.98
2018-07-09T22:18:07.478Z,101270.05
2018-07-09T22:20:36.250Z,101265.11
2018-07-09T22:23:04.491Z,101270.09
2018-07-09T22:25:32.676Z,101268.70
2018-07-09T22:28:00.443Z,101274.24
2018-07-09T22:30:31.714Z,101279.88
2018-07-09T22:33:02.178Z,101279.45
2018-07-09T22:35:31.394Z,101275.81
2018-07-09T22:38:01.646Z,101276.16
2018-07-09T22:40:31.115Z,101280.08
2018-07-09T22:43:03.467Z,101279.14
2018-07-09T22:45:33.617Z,101285.76
2018-07-09T22:48:04.578Z,101281.69
2018-07-09T22:50:33.770Z,101277.45
2018-07-09T22:53:03.117Z,101279.14
2018-07-09T22:55:44.742Z,101272.53
2018-07-09T22:58:14.744Z,101269.00
2018-07-09T23:00:43.942Z,101271.44
2018-07-09T23:03:16.258Z,101263.61
2018-07-09T23:05:46.179Z,101268.02
2018-07-09T23:08:15.334Z,101272.30
2018-07-09T23:13:20.129Z,101274.54
2018-07-09T23:17:02.455Z,101268.97
2018-07-09T23:21:45.666Z,101263.72
2018-07-09T23:24:14.092Z,101272.56
2018-07-09T23:26:41.901Z,101271.48
2018-07-09T23:29:09.859Z,101275.45
2018-07-09T23:31:37.333Z,101275.61
2018-07-09T23:34:04.775Z,101269.66
2018-07-09T23:36:32.254Z,101260.55
2018-07-09T23:38:59.686Z,101263.41
2018-07-09T23:41:27.498Z,101253.97
2018-07-09T23:43:55.035Z,101252.22
2018-07-09T23:46:22.507Z,101249.90
2018-07-09T23:48:49.928Z,101264.16
2018-07-09T23:51:17.625Z,101262.39
2018-07-09T23:53:45.255Z,101261.65
2018-07-09T23:56:25.652Z,101263.72
2018-07-09T23:59:30.353Z,101259.95
